createdAt,value
2023-05-11T00:00:38.933Z,100988.22
2023-05-11T00:03:06.232Z,100984.81
2023-05-11T00:05:33.134Z,100981.16
2023-05-11T00:07:59.578Z,100977.22
2023-05-11T00:10:26.067Z,100982.19
2023-05-11T00:12:52.533Z,100976.44
2023-05-11T00:15:19.230Z,100975.09
2023-05-11T00:17:45.706Z,100986.38
2023-05-11T00:20:12.265Z,100987.69
2023-05-11T00:22:39.159Z,100992.41
2023-05-11T00:25:06.633Z,100982.69
2023-05-11T00:27:33.083Z,100983.25
2023-05-11T00:29:59.550Z,100983.78
2023-05-11T00:32:26.201Z,100976.66
2023-05-11T00:34:52.701Z,100981.91
2023-05-11T00:37:19.285Z,100986.06
2023-05-11T00:39:45.766Z,100987.13
2023-05-11T00:42:12.244Z,100988.41
2023-05-11T00:44:38.700Z,100987.63
2023-05-11T00:47:05.410Z,100985.28
2023-05-11T00:49:32.218Z,100978.75
2023-05-11T00:52:02.822Z,100978.47
2023-05-11T00:54:29.558Z,100981.06
2023-05-11T00:56:56.260Z,100987.66
2023-05-11T00:59:23.578Z,100981.59
2023-05-11T01:01:50.502Z,100980.03
2023-05-11T01:04:17.778Z,100989.47
2023-05-11T01:06:47.905Z,100985.81
2023-05-11T01:09:30.316Z,100981.06
2023-05-11T01:12:14.036Z,100977.94
2023-05-11T01:15:18.195Z,100983.69
2023-05-11T01:17:58.053Z,100977.41
2023-05-11T01:20:30.103Z,100981.06
2023-05-11T01:23:20.328Z,100992.84
2023-05-11T01:26:08.756Z,100985.50
2023-05-11T01:29:12.846Z,100988.88
2023-05-11T01:31:42.926Z,100995.97
2023-05-11T01:34:15.876Z,100994.41
2023-05-11T01:36:53.329Z,100998.31
2023-05-11T01:39:35.060Z,100997.53
2023-05-11T01:42:08.436Z,101005.41
2023-05-11T01:44:37.109Z,100995.16
2023-05-11T01:47:04.794Z,101001.97
2023-05-11T01:49:36.340Z,101001.19
2023-05-11T01:52:03.793Z,100994.63
2023-05-11T01:54:32.438Z,100998.56
2023-05-11T01:57:01.529Z,101003.25
2023-05-11T01:59:30.968Z,100999.59
2023-05-11T02:01:58.661Z,100997.25
2023-05-11T02:04:26.554Z,101005.38
2023-05-11T02:06:54.845Z,100997.75
2023-05-11T02:09:23.551Z,101004.81
2023-05-11T02:11:51.868Z,101010.56
2023-05-11T02:14:21.635Z,101007.44
2023-05-11T02:16:49.800Z,101013.19
2023-05-11T02:19:17.788Z,101004.00
2023-05-11T02:21:45.202Z,101008.72
2023-05-11T02:24:12.343Z,101001.13
2023-05-11T02:26:38.829Z,101002.16
2023-05-11T02:29:05.310Z,101012.38
2023-05-11T02:31:39.539Z,101007.91
2023-05-11T02:34:20.612Z,101007.91
2023-05-11T02:36:49.803Z,101019.44
2023-05-11T02:39:21.916Z,101011.31
2023-05-11T02:41:57.023Z,101018.91
2023-05-11T02:44:31.494Z,101005.53
2023-05-11T02:47:02.472Z,101014.19
2023-05-11T02:49:32.339Z,101018.63
2023-05-11T02:52:01.430Z,101016.78
2023-05-11T02:54:28.873Z,101019.66
2023-05-11T02:56:57.483Z,101015.72
2023-05-11T02:59:25.108Z,101022.25
2023-05-11T03:01:52.709Z,101023.28
2023-05-11T03:04:19.570Z,101025.38
2023-05-11T03:06:46.195Z,101022.75
2023-05-11T03:09:12.761Z,101028.50
2023-05-11T03:11:45.059Z,101025.63
2023-05-11T03:14:11.954Z,101018.28
2023-05-11T03:16:39.589Z,101023.00
2023-05-11T03:19:08.099Z,101019.63
2023-05-11T03:21:37.338Z,101014.59
2023-05-11T03:24:07.063Z,101020.34
2023-05-11T03:26:35.038Z,101014.88
2023-05-11T03:29:03.143Z,101016.19
2023-05-11T03:31:29.726Z,101025.34
2023-05-11T03:33:58.454Z,101022.19
2023-05-11T03:36:27.483Z,101022.69
2023-05-11T03:38:58.394Z,101022.69
2023-05-11T03:41:33.398Z,101026.88
2023-05-11T03:44:03.006Z,101017.47
2023-05-11T03:46:32.594Z,101017.97
2023-05-11T03:49:01.263Z,101025.81
2023-05-11T03:51:31.790Z,101017.72
2023-05-11T03:53:58.960Z,101023.47
2023-05-11T03:56:25.638Z,101020.28
2023-05-11T03:58:53.370Z,101023.69
2023-05-11T04:01:20.266Z,101017.16
2023-05-11T04:03:51.291Z,101021.56
2023-05-11T04:06:18.857Z,101021.31
2023-05-11T04:08:49.506Z,101032.56
2023-05-11T04:11:15.962Z,101020.78
2023-05-11T04:13:42.762Z,101025.22
2023-05-11T04:16:09.350Z,101030.19
2023-05-11T04:18:35.849Z,101026.28
2023-05-11T04:21:02.314Z,101027.84
2023-05-11T04:23:28.750Z,101029.16
2023-05-11T04:25:56.380Z,101035.69
2023-05-11T04:28:23.908Z,101032.03
2023-05-11T04:30:55.684Z,101023.06
2023-05-11T04:33:22.660Z,101030.16
2023-05-11T04:35:51.547Z,101030.94
2023-05-11T04:38:19.619Z,101035.41
2023-05-11T04:40:47.814Z,101036.19
2023-05-11T04:43:15.561Z,101043.22
2023-05-11T04:45:46.869Z,101044.81
2023-05-11T04:48:13.798Z,101038.78
2023-05-11T04:50:40.413Z,101037.47
2023-05-11T04:53:07.622Z,101033.31
2023-05-11T04:55:34.163Z,101046.41
2023-05-11T04:58:00.641Z,101041.94
2023-05-11T05:00:27.353Z,101046.09
2023-05-11T05:02:53.799Z,101040.66
2023-05-11T05:05:20.544Z,101047.97
2023-05-11T05:07:47.107Z,101048.97
2023-05-11T05:10:13.713Z,101040.66
2023-05-11T05:12:40.425Z,101045.91
2023-05-11T05:15:07.537Z,101048.47
2023-05-11T05:17:35.442Z,101050.84
2023-05-11T05:20:02.069Z,101046.09
2023-05-11T05:22:28.575Z,101053.16
2023-05-11T05:24:55.028Z,101046.41
2023-05-11T05:27:21.509Z,101055.56
2023-05-11T05:29:48.466Z,101052.16
2023-05-11T05:32:15.696Z,101057.94
2023-05-11T05:34:42.206Z,101056.34
2023-05-11T05:37:09.555Z,101060.81
2023-05-11T05:39:36.074Z,101058.69
2023-05-11T05:42:03.136Z,101066.81
2023-05-11T05:44:29.858Z,101068.38
2023-05-11T05:46:56.365Z,101068.38
2023-05-11T05:49:22.942Z,101069.19
2023-05-11T05:51:50.726Z,101079.91
2023-05-11T05:54:17.848Z,101081.47
2023-05-11T05:56:45.186Z,101081.47
2023-05-11T05:59:13.184Z,101075.72
2023-05-11T06:01:46.234Z,101077.31
2023-05-11T06:04:14.483Z,101081.47
2023-05-11T06:06:41.120Z,101085.66
2023-05-11T06:09:08.818Z,101090.63
2023-05-11T06:11:35.524Z,101090.63
2023-05-11T06:14:01.990Z,101095.88
2023-05-11T06:16:28.465Z,101089.84
2023-05-11T06:18:55.068Z,101088.53
2023-05-11T06:21:22.051Z,101088.00
2023-05-11T06:23:48.527Z,101090.13
2023-05-11T06:26:15.568Z,101090.38
2023-05-11T06:28:42.004Z,101087.25
2023-05-11T06:31:12.761Z,101087.50
2023-05-11T06:33:42.478Z,101091.69
2023-05-11T06:36:18.245Z,101090.38
2023-05-11T06:38:45.659Z,101090.38
2023-05-11T06:41:12.126Z,101078.88
2023-05-11T06:43:38.653Z,101088.59
2023-05-11T06:46:16.346Z,101084.63
2023-05-11T06:48:43.402Z,101091.47
2023-05-11T06:51:11.615Z,101091.72
2023-05-11T06:53:38.828Z,101086.78
2023-05-11T06:56:05.633Z,101089.16
2023-05-11T06:58:32.181Z,101088.34
2023-05-11T07:00:58.713Z,101092.53
2023-05-11T07:03:25.162Z,101093.59
2023-05-11T07:05:51.624Z,101095.16
2023-05-11T07:08:18.054Z,101106.16
2023-05-11T07:10:44.436Z,101091.78
2023-05-11T07:13:11.144Z,101101.19
2023-05-11T07:15:37.545Z,101097.81
2023-05-11T07:18:04.136Z,101093.34
2023-05-11T07:20:30.680Z,101090.25
2023-05-11T07:22:59.189Z,101099.38
2023-05-11T07:25:25.950Z,101105.16
2023-05-11T07:27:52.643Z,101102.28
2023-05-11T07:30:19.254Z,101107.50
2023-05-11T07:32:45.748Z,101100.16
2023-05-11T07:35:12.269Z,101100.16
2023-05-11T07:37:38.676Z,101110.66
2023-05-11T07:40:05.750Z,101107.50
2023-05-11T07:42:32.132Z,101104.91
2023-05-11T07:44:58.609Z,101104.13
2023-05-11T07:47:25.262Z,101095.69
2023-05-11T07:49:51.744Z,101105.16
2023-05-11T07:52:18.151Z,101108.03
2023-05-11T07:54:44.829Z,101109.88
2023-05-11T07:57:11.665Z,101110.91
2023-05-11T07:59:38.116Z,101118.22
2023-05-11T08:02:06.563Z,101111.69
2023-05-11T08:04:33.489Z,101110.91
2023-05-11T08:07:00.432Z,101120.06
2023-05-11T08:09:27.085Z,101110.59
2023-05-11T08:11:56.382Z,101116.16
2023-05-11T08:14:24.321Z,101120.06
2023-05-11T08:16:50.813Z,101122.69
2023-05-11T08:19:17.270Z,101129.72
2023-05-11T08:21:44.899Z,101127.16
2023-05-11T08:24:12.204Z,101126.34
2023-05-11T08:26:38.689Z,101119.53
2023-05-11T08:29:05.119Z,101123.47
2023-05-11T08:31:31.634Z,101126.84
2023-05-11T08:33:58.137Z,101127.16
2023-05-11T08:36:24.667Z,101131.59
2023-05-11T08:38:52.381Z,101125.56
2023-05-11T08:41:18.953Z,101131.59
2023-05-11T08:43:47.044Z,101128.72
2023-05-11T08:46:20.850Z,101134.47
2023-05-11T08:48:47.463Z,101141.81
2023-05-11T08:51:14.082Z,101136.06
2023-05-11T08:53:40.562Z,101143.41
2023-05-11T08:56:09.310Z,101140.78
2023-05-11T08:58:39.686Z,101133.44
2023-05-11T09:01:07.178Z,101135.03
2023-05-11T09:03:36.896Z,101128.25
2023-05-11T09:06:07.130Z,101135.56
2023-05-11T09:08:38.331Z,101129.81
2023-05-11T09:11:05.050Z,101135.56
2023-05-11T09:13:31.961Z,101143.19
2023-05-11T09:15:59.274Z,101126.19
2023-05-11T09:18:26.823Z,101137.19
2023-05-11T09:20:53.372Z,101135.88
2023-05-11T09:23:26.695Z,101135.38
2023-05-11T09:25:53.812Z,101138.25
2023-05-11T09:28:27.688Z,101135.63
2023-05-11T09:31:01.937Z,101136.44
2023-05-11T09:33:28.585Z,101121.75
2023-05-11T09:35:55.014Z,101140.38
2023-05-11T09:38:24.957Z,101135.19
2023-05-11T09:40:54.242Z,101138.06
2023-05-11T09:43:28.980Z,101137.03
2023-05-11T09:45:57.819Z,101137.28
2023-05-11T09:48:31.738Z,101138.88
2023-05-11T09:51:02.281Z,101138.63
2023-05-11T09:53:43.991Z,101129.72
2023-05-11T09:56:10.791Z,101133.94
2023-05-11T09:58:48.674Z,101122.69
2023-05-11T10:01:16.453Z,101123.47
2023-05-11T10:03:47.899Z,101127.41
2023-05-11T10:06:15.765Z,101123.22
2023-05-11T10:08:42.930Z,101130.84
2023-05-11T10:11:09.421Z,101120.91
2023-05-11T10:13:37.967Z,101124.31
2023-05-11T10:16:05.447Z,101126.66
2023-05-11T10:18:32.426Z,101124.06
2023-05-11T10:20:59.713Z,101120.69
2023-05-11T10:23:26.656Z,101118.84
2023-05-11T10:25:54.118Z,101124.09
2023-05-11T10:28:22.155Z,101124.34
2023-05-11T10:30:49.587Z,101120.44
2023-05-11T10:33:17.021Z,101115.19
2023-05-11T10:35:44.982Z,101115.75
2023-05-11T10:38:13.418Z,101113.94
2023-05-11T10:40:43.377Z,101114.19
2023-05-11T10:43:42.844Z,101113.94
2023-05-11T10:46:24.580Z,101115.22
2023-05-11T10:49:18.259Z,101120.22
2023-05-11T10:52:03.107Z,101111.31
2023-05-11T10:54:41.801Z,101113.69
2023-05-11T10:57:20.090Z,101108.22
2023-05-11T11:00:10.714Z,101119.75
2023-05-11T11:02:37.993Z,101113.75
2023-05-11T11:05:08.586Z,101111.13
2023-05-11T11:07:58.278Z,101105.09
2023-05-11T11:10:35.982Z,101104.06
2023-05-11T11:13:04.629Z,101105.91
2023-05-11T11:16:10.008Z,101111.66
2023-05-11T11:18:36.713Z,101110.09
2023-05-11T11:21:04.400Z,101109.84
2023-05-11T11:23:40.438Z,101112.22
2023-05-11T11:26:08.163Z,101108.81
2023-05-11T11:28:57.139Z,101114.31
2023-05-11T11:31:29.557Z,101118.81
2023-05-11T11:34:01.138Z,101122.22
2023-05-11T11:36:55.392Z,101119.59
2023-05-11T11:39:22.614Z,101118.81
2023-05-11T11:42:04.993Z,101116.19
2023-05-11T11:44:33.531Z,101124.31
2023-05-11T11:47:20.072Z,101119.63
2023-05-11T11:49:51.582Z,101115.41
2023-05-11T11:52:27.149Z,101112.25
2023-05-11T11:54:59.732Z,101100.47
2023-05-11T11:57:35.358Z,101098.63
2023-05-11T12:00:09.294Z,101094.16
2023-05-11T12:02:43.091Z,101093.38
2023-05-11T12:05:22.318Z,101098.88
2023-05-11T12:07:51.482Z,101087.63
2023-05-11T12:10:20.001Z,101089.16
2023-05-11T12:12:51.080Z,101090.47
2023-05-11T12:15:27.606Z,101096.00
2023-05-11T12:17:54.718Z,101085.78
2023-05-11T12:20:22.958Z,101081.81
2023-05-11T12:22:50.280Z,101082.09
2023-05-11T12:25:18.472Z,101082.59
2023-05-11T12:28:00.959Z,101071.84
2023-05-11T12:30:32.432Z,101078.38
2023-05-11T12:33:00.173Z,101078.16
2023-05-11T12:35:31.880Z,101086.00
2023-05-11T12:38:00.727Z,101080.47
2023-05-11T12:40:27.284Z,101093.84
2023-05-11T12:42:58.888Z,101081.78
2023-05-11T12:45:27.012Z,101083.06
2023-05-11T12:47:56.091Z,101073.88
2023-05-11T12:50:22.942Z,101073.59
2023-05-11T12:52:50.350Z,101066.75
2023-05-11T12:55:28.455Z,101068.31
2023-05-11T12:58:11.270Z,101065.44
2023-05-11T13:00:49.706Z,101054.16
2023-05-11T13:03:21.597Z,101058.88
2023-05-11T13:05:48.375Z,101047.56
2023-05-11T13:08:16.493Z,101037.81
2023-05-11T13:10:42.926Z,101043.84
2023-05-11T13:13:09.546Z,101040.94
2023-05-11T13:15:50.775Z,101042.00
2023-05-11T13:18:17.362Z,101047.50
2023-05-11T13:20:44.913Z,101051.44
2023-05-11T13:23:15.844Z,101054.03
2023-05-11T13:25:48.846Z,101055.59
2023-05-11T13:28:16.881Z,101047.19
2023-05-11T13:30:43.637Z,101053.47
2023-05-11T13:33:10.295Z,101053.22
2023-05-11T13:35:41.612Z,101050.03
2023-05-11T13:38:08.961Z,101040.28
2023-05-11T13:40:35.600Z,101036.84
2023-05-11T13:43:02.459Z,101021.59
2023-05-11T13:45:29.155Z,101024.75
2023-05-11T13:47:55.764Z,101025.78
2023-05-11T13:50:23.229Z,101024.19
2023-05-11T13:52:50.799Z,101027.56
2023-05-11T13:55:17.685Z,101028.59
2023-05-11T13:57:44.463Z,101029.09
2023-05-11T14:00:11.727Z,101036.44
2023-05-11T14:02:38.679Z,101033.78
2023-05-11T14:05:05.608Z,101031.94
2023-05-11T14:07:45.697Z,101037.44
2023-05-11T14:10:13.709Z,101024.56
2023-05-11T14:12:41.183Z,101033.47
2023-05-11T14:15:08.470Z,101029.81
2023-05-11T14:17:35.330Z,101029.25
2023-05-11T14:20:01.957Z,101020.81
2023-05-11T14:22:29.095Z,101015.03
2023-05-11T14:24:56.124Z,101017.63
2023-05-11T14:27:23.844Z,101018.41
2023-05-11T14:29:52.121Z,101015.78
2023-05-11T14:32:19.345Z,101004.22
2023-05-11T14:34:46.086Z,101007.34
2023-05-11T14:37:13.155Z,101012.34
2023-05-11T14:39:42.420Z,101023.63
2023-05-11T14:42:08.902Z,101014.94
2023-05-11T14:44:35.466Z,101014.94
2023-05-11T14:47:01.915Z,101026.75
2023-05-11T14:49:28.792Z,101039.09
2023-05-11T14:51:55.394Z,101034.91
2023-05-11T14:54:21.809Z,101029.88
2023-05-11T14:56:53.697Z,101022.00
2023-05-11T14:59:24.327Z,101016.75
2023-05-11T15:01:51.184Z,101021.75
2023-05-11T15:04:19.749Z,101023.31
2023-05-11T15:06:46.510Z,101008.31
2023-05-11T15:09:13.530Z,101006.72
2023-05-11T15:11:40.035Z,101017.22
2023-05-11T15:14:09.741Z,101003.31
2023-05-11T15:16:37.123Z,101010.66
2023-05-11T15:19:05.079Z,101008.31
2023-05-11T15:21:32.428Z,101004.09
2023-05-11T15:23:58.854Z,101017.22
2023-05-11T15:26:25.378Z,101001.22
2023-05-11T15:28:52.112Z,101022.25
2023-05-11T15:31:18.529Z,101028.81
2023-05-11T15:33:45.091Z,101019.88
2023-05-11T15:36:13.269Z,101021.47
2023-05-11T15:38:40.275Z,101021.47
2023-05-11T15:41:07.628Z,101017.22
2023-05-11T15:43:34.386Z,101019.34
2023-05-11T15:46:01.022Z,101017.22
2023-05-11T15:48:27.506Z,101020.13
2023-05-11T15:50:53.995Z,101017.22
2023-05-11T15:53:20.511Z,101018.81
2023-05-11T15:55:50.649Z,101026.97
2023-05-11T15:58:18.068Z,101015.16
2023-05-11T16:00:44.951Z,101016.16
2023-05-11T16:03:11.864Z,101010.38
2023-05-11T16:05:39.182Z,101007.19
2023-05-11T16:08:06.598Z,100993.81
2023-05-11T16:10:33.315Z,101003.72
2023-05-11T16:12:59.782Z,101000.59
2023-05-11T16:15:26.378Z,101006.91
2023-05-11T16:17:53.092Z,101014.22
2023-05-11T16:20:20.090Z,101009.25
2023-05-11T16:22:47.933Z,101013.69
2023-05-11T16:25:14.331Z,101015.81
2023-05-11T16:27:40.789Z,101008.72
2023-05-11T16:30:21.622Z,101005.28
2023-05-11T16:32:50.409Z,101001.84
2023-05-11T16:35:16.864Z,101000.72
2023-05-11T16:37:43.284Z,101006.53
2023-05-11T16:42:36.212Z,101003.91
2023-05-11T16:45:02.652Z,101009.91
2023-05-11T16:47:29.081Z,101006.25
2023-05-11T16:49:55.581Z,101009.91
2023-05-11T16:52:22.079Z,101016.75
2023-05-11T16:54:48.533Z,101013.84
2023-05-11T16:57:15.236Z,101013.03
2023-05-11T16:59:41.940Z,101011.19
2023-05-11T17:02:08.482Z,101020.66
2023-05-11T17:04:35.037Z,101016.22
2023-05-11T17:07:01.494Z,101018.56
2023-05-11T17:09:28.232Z,101004.34
2023-05-11T17:11:55.364Z,101001.19
2023-05-11T17:14:22.140Z,101001.97
2023-05-11T17:16:48.784Z,101003.28
2023-05-11T17:19:15.573Z,100993.81
2023-05-11T17:21:42.217Z,100996.72
2023-05-11T17:24:08.673Z,101007.53
2023-05-11T17:26:46.541Z,101011.44
2023-05-11T17:29:15.773Z,101015.66
2023-05-11T17:31:42.520Z,101014.84
2023-05-11T17:34:09.394Z,101026.44
2023-05-11T17:36:36.486Z,101023.31
2023-05-11T17:39:02.945Z,101027.53
2023-05-11T17:41:29.751Z,101036.47
2023-05-11T17:43:56.255Z,101034.91
2023-05-11T17:46:22.732Z,101033.56
2023-05-11T17:48:49.190Z,101032.00
2023-05-11T17:51:15.710Z,101034.91
2023-05-11T17:53:42.512Z,101035.66
2023-05-11T17:56:11.642Z,101035.44
2023-05-11T17:58:38.178Z,101035.19
2023-05-11T18:01:08.999Z,101035.97
2023-05-11T18:03:35.977Z,101034.41
2023-05-11T18:06:02.589Z,101038.63
2023-05-11T18:08:29.058Z,101028.59
2023-05-11T18:10:55.606Z,101040.72
2023-05-11T18:13:22.694Z,101049.41
2023-05-11T18:15:49.412Z,101035.25
2023-05-11T18:18:16.228Z,101039.72
2023-05-11T18:20:45.468Z,101034.22
2023-05-11T18:23:13.784Z,101042.38
2023-05-11T18:25:40.266Z,101041.09
2023-05-11T18:28:06.703Z,101044.22
2023-05-11T18:30:33.953Z,101048.44
2023-05-11T18:33:00.537Z,101049.50
2023-05-11T18:35:27.234Z,101044.53
2023-05-11T18:37:54.014Z,101058.72
2023-05-11T18:40:20.832Z,101058.25
2023-05-11T18:42:47.642Z,101062.72
2023-05-11T18:45:14.215Z,101054.59
2023-05-11T18:47:46.144Z,101067.47
2023-05-11T18:50:12.904Z,101058.56
2023-05-11T18:52:39.330Z,101072.22
2023-05-11T18:55:06.182Z,101071.97
2023-05-11T18:57:34.349Z,101081.97
2023-05-11T19:00:00.970Z,101087.75
2023-05-11T19:02:27.631Z,101083.84
2023-05-11T19:04:54.140Z,101081.78
2023-05-11T19:07:20.713Z,101089.13
2023-05-11T19:09:47.242Z,101088.34
2023-05-11T19:12:13.731Z,101098.34
2023-05-11T19:14:40.453Z,101092.09
2023-05-11T19:17:06.958Z,101099.97
2023-05-11T19:19:34.119Z,101096.28
2023-05-11T19:22:00.579Z,101104.19
2023-05-11T19:24:27.466Z,101103.94
2023-05-11T19:27:05.981Z,101103.69
2023-05-11T19:29:33.534Z,101103.44
2023-05-11T19:32:00.285Z,101103.44
2023-05-11T19:34:26.811Z,101109.75
2023-05-11T19:36:53.235Z,101110.06
2023-05-11T19:39:19.691Z,101115.84
2023-05-11T19:41:46.281Z,101113.25
2023-05-11T19:44:12.729Z,101118.50
2023-05-11T19:46:45.595Z,101127.19
2023-05-11T19:49:13.556Z,101119.56
2023-05-11T19:51:39.992Z,101134.31
2023-05-11T19:54:06.403Z,101125.94
2023-05-11T19:56:32.905Z,101128.56
2023-05-11T19:58:59.658Z,101132.50
2023-05-11T20:01:26.357Z,101138.06
2023-05-11T20:03:52.918Z,101142.50
2023-05-11T20:06:19.439Z,101144.38
2023-05-11T20:08:47.976Z,101143.84
2023-05-11T20:11:15.338Z,101152.03
2023-05-11T20:13:42.370Z,101150.44
2023-05-11T20:16:08.899Z,101156.75
2023-05-11T20:18:35.548Z,101162.81
2023-05-11T20:21:01.989Z,101172.31
2023-05-11T20:23:28.454Z,101169.94
2023-05-11T20:25:55.047Z,101170.19
2023-05-11T20:28:22.093Z,101179.94
2023-05-11T20:30:48.593Z,101180.19
2023-05-11T20:35:44.664Z,101186.00
2023-05-11T20:38:11.816Z,101193.88
2023-05-11T20:40:38.380Z,101208.59
2023-05-11T20:43:04.878Z,101198.09
2023-05-11T20:45:31.621Z,101197.31
2023-05-11T20:47:59.028Z,101207.56
2023-05-11T20:50:26.788Z,101210.47
2023-05-11T20:52:53.211Z,101207.28
2023-05-11T20:55:19.995Z,101210.47
2023-05-11T20:57:46.648Z,101207.56
2023-05-11T21:00:16.019Z,101211.50
2023-05-11T21:02:42.868Z,101224.13
2023-05-11T21:05:09.322Z,101215.72
2023-05-11T21:07:35.896Z,101206.00
2023-05-11T21:10:02.613Z,101207.31
2023-05-11T21:12:29.063Z,101212.56
2023-05-11T21:14:56.973Z,101212.81
2023-05-11T21:17:23.964Z,101222.53
2023-05-11T21:19:50.396Z,101226.72
2023-05-11T21:22:16.813Z,101224.09
2023-05-11T21:24:43.226Z,101223.56
2023-05-11T21:27:09.688Z,101225.66
2023-05-11T21:29:36.306Z,101224.63
2023-05-11T21:32:02.913Z,101228.53
2023-05-11T21:34:29.364Z,101225.88
2023-05-11T21:36:56.061Z,101235.09
2023-05-11T21:39:24.657Z,101233.25
2023-05-11T21:41:51.115Z,101241.63
2023-05-11T21:44:17.543Z,101244.78
2023-05-11T21:46:44.021Z,101246.63
2023-05-11T21:49:10.641Z,101252.09
2023-05-11T21:51:37.424Z,101250.78
2023-05-11T21:54:03.966Z,101249.75
2023-05-11T21:56:31.335Z,101256.03
2023-05-11T21:58:57.738Z,101254.72
2023-05-11T22:01:24.219Z,101251.81
2023-05-11T22:03:50.869Z,101265.19
2023-05-11T22:06:17.371Z,101262.56
2023-05-11T22:08:44.253Z,101268.06
2023-05-11T22:11:10.663Z,101256.25
2023-05-11T22:13:37.371Z,101261.47
2023-05-11T22:16:04.269Z,101266.47
2023-05-11T22:18:30.769Z,101267.50
2023-05-11T22:20:57.199Z,101266.44
2023-05-11T22:23:23.630Z,101261.44
2023-05-11T22:25:50.083Z,101264.06
2023-05-11T22:28:16.524Z,101272.41
2023-05-11T22:30:43.107Z,101270.06
2023-05-11T22:33:09.518Z,101262.97
2023-05-11T22:35:36.066Z,101267.16
2023-05-11T22:38:02.537Z,101271.34
2023-05-11T22:40:29.014Z,101278.13
2023-05-11T22:42:55.503Z,101270.00
2023-05-11T22:45:22.050Z,101279.72
2023-05-11T22:47:48.437Z,101277.34
2023-05-11T22:50:14.958Z,101276.25
2023-05-11T22:52:41.461Z,101265.19
2023-05-11T22:55:08.527Z,101286.47
2023-05-11T22:57:35.087Z,101281.72
2023-05-11T23:00:01.574Z,101277.28
2023-05-11T23:02:29.582Z,101284.84
2023-05-11T23:04:56.195Z,101282.44
2023-05-11T23:07:22.631Z,101279.00
2023-05-11T23:09:52.359Z,101279.00
2023-05-11T23:12:19.028Z,101286.09
2023-05-11T23:14:45.528Z,101291.56
2023-05-11T23:17:12.350Z,101282.66
2023-05-11T23:19:38.916Z,101286.84
2023-05-11T23:22:05.414Z,101295.19
2023-05-11T23:24:31.869Z,101289.69
2023-05-11T23:26:58.675Z,101287.31
2023-05-11T23:29:26.903Z,101282.31
2023-05-11T23:31:53.678Z,101285.19
2023-05-11T23:34:20.114Z,101289.09
2023-05-11T23:36:47.398Z,101288.81
2023-05-11T23:39:14.219Z,101293.00
2023-05-11T23:41:40.740Z,101282.50
2023-05-11T23:44:07.316Z,101282.50
2023-05-11T23:46:33.950Z,101285.88
2023-05-11T23:49:00.411Z,101284.84
2023-05-11T23:51:26.873Z,101293.19
2023-05-11T23:53:53.272Z,101285.88
2023-05-11T23:56:19.698Z,101291.31
2023-05-11T23:58:46.302Z,101284.78
